Terminal Aerodrome Forecast
Issued by NWS

Home | Current Version | Previous Version | Text Only | Print | Product List | Glossary On
Versions: 1 2 3 4 5 6 7 8 9 10 11 12 13
000
FTUS42 KMLB 210500
TAFTIX
TAF
KTIX 210535Z 2106/2206 VRB03KT P6SM OVC100
     FM210800 VRB03KT 5SM BR BKN015 OVC030
     FM211400 19004KT P6SM SCT015 OVC030
     FM211800 21007KT P6SM SCT020 OVC050
     FM220200 15004KT P6SM VCSH SCT015 BKN025 OVC040
      AMD NOT SKED 2106/2112=

USA.gov is the U.S. government's official web portal to all federal, state and local government web resources and services.